createdAt,value
2023-02-06T00:01:33.430Z,2.40
2023-02-06T00:04:00.213Z,2.40
2023-02-06T00:06:26.993Z,2.30
2023-02-06T00:08:53.840Z,2.20
2023-02-06T00:11:21.835Z,2.20
2023-02-06T00:13:49.270Z,2.20
2023-02-06T00:16:25.958Z,1.90
2023-02-06T00:18:54.030Z,1.70
2023-02-06T00:21:25.929Z,1.60
2023-02-06T00:23:54.834Z,1.40
2023-02-06T00:26:22.034Z,1.30
2023-02-06T00:28:49.049Z,1.20
2023-02-06T00:31:16.208Z,1.40
2023-02-06T00:33:43.323Z,1.50
2023-02-06T00:36:10.577Z,1.60
2023-02-06T00:38:38.526Z,1.60
2023-02-06T00:41:05.786Z,1.50
2023-02-06T00:43:32.954Z,1.50
2023-02-06T00:45:59.713Z,1.60
2023-02-06T00:48:26.477Z,1.60
2023-02-06T00:50:54.005Z,1.80
2023-02-06T00:53:21.318Z,1.90
2023-02-06T00:55:48.171Z,2.00
2023-02-06T00:58:15.184Z,2.00
2023-02-06T01:00:41.935Z,2.00
2023-02-06T01:03:08.676Z,1.90
2023-02-06T01:05:35.779Z,2.00
2023-02-06T01:08:04.459Z,1.90
2023-02-06T01:10:31.701Z,1.90
2023-02-06T01:12:58.540Z,1.90
2023-02-06T01:15:25.375Z,1.90
2023-02-06T01:17:52.205Z,2.00
2023-02-06T01:20:19.065Z,1.90
2023-02-06T01:22:45.804Z,1.90
2023-02-06T01:25:12.662Z,2.00
2023-02-06T01:27:39.817Z,2.00
2023-02-06T01:32:39.733Z,2.00
2023-02-06T01:35:08.140Z,1.80
2023-02-06T01:37:36.246Z,1.80
2023-02-06T01:40:04.449Z,1.90
2023-02-06T01:42:34.946Z,1.90
2023-02-06T01:45:25.594Z,1.80
2023-02-06T01:48:04.176Z,1.80
2023-02-06T01:50:34.177Z,1.70
2023-02-06T01:53:02.020Z,1.70
2023-02-06T01:55:28.946Z,1.80
2023-02-06T01:57:55.900Z,1.70
2023-02-06T02:00:22.927Z,1.60
2023-02-06T02:02:50.189Z,1.50
2023-02-06T02:05:18.405Z,1.60
2023-02-06T02:08:06.518Z,1.70
2023-02-06T02:10:33.910Z,1.80
2023-02-06T02:13:00.705Z,1.80
2023-02-06T02:15:47.702Z,1.80
2023-02-06T02:18:37.463Z,1.80
2023-02-06T02:21:23.106Z,1.80
2023-02-06T02:24:02.073Z,1.80
2023-02-06T02:26:59.876Z,1.80
2023-02-06T02:29:54.469Z,1.80
2023-02-06T02:32:44.340Z,1.80
2023-02-06T02:36:08.489Z,1.80
2023-02-06T02:39:03.732Z,1.80
2023-02-06T02:41:49.542Z,1.80
2023-02-06T02:44:34.210Z,1.70
2023-02-06T02:47:07.878Z,1.70
2023-02-06T02:49:37.898Z,1.70
2023-02-06T02:52:05.112Z,1.70
2023-02-06T02:54:31.829Z,1.70
2023-02-06T02:57:08.099Z,1.60
2023-02-06T02:59:39.052Z,1.60
2023-02-06T03:02:25.338Z,1.60
2023-02-06T03:05:06.498Z,1.60
2023-02-06T03:07:58.907Z,1.60
2023-02-06T03:10:46.806Z,1.70
2023-02-06T03:13:36.981Z,1.70
2023-02-06T03:16:40.408Z,1.60
2023-02-06T03:19:12.986Z,1.60
2023-02-06T03:21:41.777Z,1.60
2023-02-06T03:24:13.572Z,1.60
2023-02-06T03:26:42.347Z,1.60
2023-02-06T03:29:12.873Z,1.60
2023-02-06T03:31:45.690Z,1.70
2023-02-06T03:34:30.568Z,1.60
2023-02-06T03:36:57.407Z,1.70
2023-02-06T03:39:24.298Z,1.60
2023-02-06T03:41:53.796Z,1.60
2023-02-06T03:44:24.722Z,1.70
2023-02-06T03:46:54.474Z,1.70
2023-02-06T03:49:24.628Z,1.80
2023-02-06T03:51:59.364Z,1.80
2023-02-06T03:54:27.472Z,1.80
2023-02-06T03:57:00.265Z,1.80
2023-02-06T03:59:27.304Z,1.80
2023-02-06T04:01:58.068Z,1.80
2023-02-06T04:04:29.302Z,1.80
2023-02-06T04:07:00.347Z,1.70
2023-02-06T04:09:27.109Z,1.70
2023-02-06T04:11:53.986Z,1.70
2023-02-06T04:14:20.704Z,1.80
2023-02-06T04:16:47.581Z,1.80
2023-02-06T04:19:14.325Z,1.80
2023-02-06T04:21:41.078Z,1.80
2023-02-06T04:24:08.083Z,1.80
2023-02-06T04:26:34.829Z,1.90
2023-02-06T04:29:01.581Z,1.90
2023-02-06T04:31:28.380Z,1.90
2023-02-06T04:33:55.252Z,1.90
2023-02-06T04:36:22.012Z,1.90
2023-02-06T04:38:48.761Z,1.90
2023-02-06T04:41:15.490Z,1.80
2023-02-06T04:43:42.228Z,1.90
2023-02-06T04:46:08.922Z,1.90
2023-02-06T04:48:37.031Z,1.80
2023-02-06T04:51:04.103Z,1.80
2023-02-06T04:53:30.969Z,1.80
2023-02-06T04:56:05.344Z,1.80
2023-02-06T04:58:32.815Z,1.90
2023-02-06T05:00:59.622Z,1.80
2023-02-06T05:03:26.517Z,1.80
2023-02-06T05:05:53.488Z,1.70
2023-02-06T05:08:20.182Z,1.70
2023-02-06T05:10:47.246Z,1.90
2023-02-06T05:13:14.250Z,2.00
2023-02-06T05:15:41.025Z,2.00
2023-02-06T05:18:07.794Z,2.00
2023-02-06T05:20:34.586Z,1.90
2023-02-06T05:23:01.319Z,1.80
2023-02-06T05:25:28.221Z,1.80
2023-02-06T05:27:55.340Z,1.80
2023-02-06T05:30:22.115Z,1.80
2023-02-06T05:32:48.854Z,1.80
2023-02-06T05:35:15.641Z,1.80
2023-02-06T05:37:42.455Z,1.90
2023-02-06T05:40:10.252Z,1.90
2023-02-06T05:42:37.261Z,1.80
2023-02-06T05:45:04.300Z,1.70
2023-02-06T05:47:31.026Z,1.70
2023-02-06T05:49:57.761Z,1.70
2023-02-06T05:52:24.518Z,1.70
2023-02-06T05:54:51.325Z,1.80
2023-02-06T05:57:18.105Z,1.80
2023-02-06T05:59:44.808Z,1.80
2023-02-06T06:02:11.601Z,1.70
2023-02-06T06:04:38.380Z,1.70
2023-02-06T06:07:05.191Z,1.80
2023-02-06T06:09:31.934Z,1.70
2023-02-06T06:11:58.657Z,1.60
2023-02-06T06:14:25.445Z,1.60
2023-02-06T06:16:52.743Z,1.60
2023-02-06T06:19:19.678Z,1.60
2023-02-06T06:21:46.462Z,1.60
2023-02-06T06:24:13.266Z,1.60
2023-02-06T06:26:40.066Z,1.70
2023-02-06T06:29:06.990Z,1.70
2023-02-06T06:31:33.864Z,1.70
2023-02-06T06:34:00.761Z,1.70
2023-02-06T06:36:27.749Z,1.70
2023-02-06T06:38:54.573Z,1.70
2023-02-06T06:41:21.286Z,1.70
2023-02-06T06:43:49.581Z,1.60
2023-02-06T06:46:18.994Z,1.60
2023-02-06T06:48:45.741Z,1.60
2023-02-06T06:51:12.579Z,1.70
2023-02-06T06:53:40.254Z,1.70
2023-02-06T06:56:08.609Z,1.70
2023-02-06T06:58:35.401Z,1.80
2023-02-06T07:01:02.235Z,1.80
2023-02-06T07:03:29.032Z,1.80
2023-02-06T07:05:55.760Z,1.80
2023-02-06T07:08:22.483Z,1.80
2023-02-06T07:10:49.559Z,1.90
2023-02-06T07:13:16.358Z,1.90
2023-02-06T07:15:43.510Z,2.00
2023-02-06T07:18:11.864Z,2.10
2023-02-06T07:20:38.808Z,2.10
2023-02-06T07:23:06.286Z,2.10
2023-02-06T07:25:33.140Z,2.10
2023-02-06T07:27:59.995Z,2.00
2023-02-06T07:30:26.947Z,2.20
2023-02-06T07:32:53.768Z,2.10
2023-02-06T07:35:20.508Z,2.30
2023-02-06T07:37:47.281Z,2.30
2023-02-06T07:40:14.058Z,2.30
2023-02-06T07:42:40.841Z,2.30
2023-02-06T07:45:07.968Z,2.30
2023-02-06T07:47:34.698Z,2.30
2023-02-06T07:50:01.424Z,2.40
2023-02-06T07:52:28.225Z,2.40
2023-02-06T07:54:54.977Z,2.40
2023-02-06T07:57:21.974Z,2.50
2023-02-06T07:59:48.889Z,2.50
2023-02-06T08:02:15.672Z,2.60
2023-02-06T08:04:42.502Z,2.70
2023-02-06T08:07:11.232Z,2.60
2023-02-06T08:09:38.138Z,2.70
2023-02-06T08:12:04.966Z,2.80
2023-02-06T08:14:32.778Z,2.80
2023-02-06T08:16:59.970Z,2.90
2023-02-06T08:19:26.777Z,3.00
2023-02-06T08:21:53.495Z,3.00
2023-02-06T08:24:20.247Z,3.00
2023-02-06T08:26:47.020Z,3.00
2023-02-06T08:29:14.511Z,3.10
2023-02-06T08:31:42.629Z,3.10
2023-02-06T08:34:13.174Z,3.20
2023-02-06T08:36:42.148Z,3.20
2023-02-06T08:39:12.742Z,3.30
2023-02-06T08:41:41.394Z,3.30
2023-02-06T08:44:12.354Z,3.30
2023-02-06T08:46:40.043Z,3.30
2023-02-06T08:49:11.301Z,3.30
2023-02-06T08:51:38.270Z,3.20
2023-02-06T08:54:07.956Z,3.30
2023-02-06T08:56:36.410Z,3.40
2023-02-06T08:59:04.364Z,3.40
2023-02-06T09:01:32.976Z,3.40
2023-02-06T09:04:02.920Z,3.40
2023-02-06T09:06:30.317Z,3.50
2023-02-06T09:08:57.645Z,3.60
2023-02-06T09:11:25.695Z,3.70
2023-02-06T09:13:55.376Z,3.70
2023-02-06T09:16:22.983Z,3.80
2023-02-06T09:18:53.928Z,3.80
2023-02-06T09:21:23.523Z,3.90
2023-02-06T09:23:53.915Z,3.90
2023-02-06T09:26:23.747Z,3.90
2023-02-06T09:28:57.858Z,4.00
2023-02-06T09:31:26.476Z,4.00
2023-02-06T09:33:53.816Z,4.10
2023-02-06T09:36:21.602Z,4.20
2023-02-06T09:38:50.699Z,4.20
2023-02-06T09:41:32.323Z,4.40
2023-02-06T09:44:13.727Z,4.40
2023-02-06T09:47:11.298Z,4.60
2023-02-06T09:49:54.678Z,4.70
2023-02-06T09:52:40.923Z,4.90
2023-02-06T09:55:13.702Z,5.00
2023-02-06T09:57:58.629Z,4.90
2023-02-06T10:00:56.210Z,5.00
2023-02-06T10:03:48.657Z,5.20
2023-02-06T10:06:28.720Z,5.40
2023-02-06T10:09:01.625Z,5.60
2023-02-06T10:11:57.398Z,5.50
2023-02-06T10:14:35.958Z,5.60
2023-02-06T10:17:05.877Z,5.60
2023-02-06T10:19:46.634Z,5.60
2023-02-06T10:22:21.065Z,5.50
2023-02-06T10:25:11.468Z,5.50
2023-02-06T10:27:41.947Z,5.30
2023-02-06T10:32:52.860Z,5.30
2023-02-06T10:35:39.777Z,5.50
2023-02-06T10:38:25.495Z,5.50
2023-02-06T10:41:01.095Z,5.50
2023-02-06T10:43:52.970Z,5.50
2023-02-06T10:46:23.263Z,5.40
2023-02-06T10:49:09.767Z,5.50
2023-02-06T10:51:42.548Z,5.60
2023-02-06T10:54:18.324Z,5.60
2023-02-06T10:56:47.840Z,5.40
2023-02-06T10:59:28.240Z,5.40
2023-02-06T11:02:14.429Z,5.30
2023-02-06T11:04:51.897Z,5.30
2023-02-06T11:07:36.953Z,5.50
2023-02-06T11:10:04.845Z,5.50
2023-02-06T11:12:36.324Z,5.50
2023-02-06T11:15:24.606Z,5.70
2023-02-06T11:17:52.900Z,5.60
2023-02-06T11:20:24.114Z,5.70
2023-02-06T11:22:53.520Z,5.70
2023-02-06T11:25:22.943Z,5.60
2023-02-06T11:27:50.228Z,5.40
2023-02-06T11:30:31.837Z,5.30
2023-02-06T11:33:04.680Z,5.20
2023-02-06T11:35:38.551Z,5.20
2023-02-06T11:38:18.702Z,5.30
2023-02-06T11:41:04.315Z,5.20
2023-02-06T11:43:49.086Z,5.30
2023-02-06T11:46:20.508Z,5.50
2023-02-06T11:49:08.687Z,5.70
2023-02-06T11:51:46.510Z,5.90
2023-02-06T11:54:28.196Z,5.90
2023-02-06T11:56:57.724Z,5.90
2023-02-06T11:59:27.059Z,5.90
2023-02-06T12:01:54.283Z,5.90
2023-02-06T12:04:30.989Z,5.80
2023-02-06T12:07:04.617Z,6.00
2023-02-06T12:09:31.736Z,6.30
2023-02-06T12:12:27.154Z,6.70
2023-02-06T12:15:33.169Z,6.70
2023-02-06T12:18:04.957Z,6.60
2023-02-06T12:20:35.107Z,6.70
2023-02-06T12:23:32.432Z,6.70
2023-02-06T12:26:03.874Z,6.50
2023-02-06T12:28:59.017Z,6.40
2023-02-06T12:31:41.749Z,6.40
2023-02-06T12:34:42.546Z,6.30
2023-02-06T12:37:22.158Z,6.30
2023-02-06T12:39:51.524Z,6.40
2023-02-06T12:42:42.332Z,6.40
2023-02-06T12:45:31.650Z,6.50
2023-02-06T12:48:19.763Z,6.50
2023-02-06T12:50:49.741Z,6.70
2023-02-06T12:53:35.383Z,6.80
2023-02-06T12:56:07.522Z,6.80
2023-02-06T12:58:56.416Z,6.80
2023-02-06T13:02:17.539Z,6.80
2023-02-06T13:04:46.965Z,6.90
2023-02-06T13:07:17.135Z,6.90
2023-02-06T13:10:07.350Z,7.00
2023-02-06T13:12:35.022Z,7.10
2023-02-06T13:15:08.709Z,7.00
2023-02-06T13:17:46.108Z,7.10
2023-02-06T13:20:24.543Z,7.10
2023-02-06T13:22:54.018Z,7.10
2023-02-06T13:25:28.591Z,7.00
2023-02-06T13:27:59.410Z,6.80
2023-02-06T13:30:29.024Z,6.70
2023-02-06T13:33:22.968Z,6.60
2023-02-06T13:36:10.091Z,6.60
2023-02-06T13:38:42.430Z,6.50
2023-02-06T13:41:15.205Z,6.40
2023-02-06T13:43:52.831Z,6.50
2023-02-06T13:46:23.793Z,6.70
2023-02-06T13:48:59.375Z,6.70
2023-02-06T13:51:45.872Z,6.70
2023-02-06T13:54:40.854Z,6.80
2023-02-06T13:57:29.046Z,6.60
2023-02-06T14:00:02.597Z,6.50
2023-02-06T14:02:38.831Z,6.60
2023-02-06T14:05:10.927Z,6.50
2023-02-06T14:08:04.695Z,6.40
2023-02-06T14:11:03.464Z,6.30
2023-02-06T14:13:55.640Z,6.30
2023-02-06T14:16:32.101Z,6.60
2023-02-06T14:19:06.048Z,6.50
2023-02-06T14:21:53.964Z,6.50
2023-02-06T14:24:48.113Z,6.50
2023-02-06T14:27:39.737Z,6.50
2023-02-06T14:33:07.950Z,6.70
2023-02-06T14:36:00.825Z,6.80
2023-02-06T14:38:49.207Z,6.60
2023-02-06T14:41:17.272Z,6.60
2023-02-06T14:43:45.992Z,6.60
2023-02-06T14:46:15.735Z,6.60
2023-02-06T14:48:51.882Z,6.60
2023-02-06T14:51:29.365Z,6.60
2023-02-06T14:54:00.346Z,6.60
2023-02-06T14:56:38.822Z,6.60
2023-02-06T14:59:23.915Z,6.90
2023-02-06T15:01:54.847Z,6.60
2023-02-06T15:04:30.230Z,6.80
2023-02-06T15:06:59.954Z,6.60
2023-02-06T15:09:29.577Z,6.50
2023-02-06T15:11:59.198Z,6.60
2023-02-06T15:14:34.561Z,6.60
2023-02-06T15:17:02.909Z,6.60
2023-02-06T15:19:37.734Z,6.60
2023-02-06T15:22:13.814Z,6.60
2023-02-06T15:25:28.464Z,6.50
2023-02-06T15:28:03.810Z,6.50
2023-02-06T15:30:34.665Z,6.40
2023-02-06T15:33:02.050Z,6.40
2023-02-06T15:35:31.506Z,6.50
2023-02-06T15:38:14.592Z,6.50
2023-02-06T15:40:45.774Z,6.40
2023-02-06T15:43:20.021Z,6.40
2023-02-06T15:45:48.911Z,6.40
2023-02-06T15:48:27.710Z,6.40
2023-02-06T15:50:58.033Z,6.40
2023-02-06T15:53:40.667Z,6.30
2023-02-06T15:56:41.090Z,6.30
2023-02-06T15:59:20.195Z,6.20
2023-02-06T16:01:48.013Z,6.30
2023-02-06T16:04:18.638Z,6.40
2023-02-06T16:06:47.153Z,6.40
2023-02-06T16:09:21.826Z,6.30
2023-02-06T16:11:52.434Z,6.30
2023-02-06T16:14:51.003Z,6.10
2023-02-06T16:17:17.700Z,6.00
2023-02-06T16:19:56.486Z,5.90
2023-02-06T16:22:31.083Z,5.80
2023-02-06T16:25:43.327Z,5.80
2023-02-06T16:28:25.863Z,5.70
2023-02-06T16:31:04.585Z,5.50
2023-02-06T16:33:46.442Z,5.30
2023-02-06T16:36:18.032Z,5.20
2023-02-06T16:38:53.986Z,5.00
2023-02-06T16:41:26.050Z,4.80
2023-02-06T16:43:54.663Z,4.70
2023-02-06T16:46:21.623Z,4.60
2023-02-06T16:48:48.657Z,4.50
2023-02-06T16:51:21.126Z,4.50
2023-02-06T16:53:49.174Z,4.40
2023-02-06T16:56:17.815Z,4.30
2023-02-06T16:58:45.566Z,4.20
2023-02-06T17:01:25.567Z,4.10
2023-02-06T17:03:53.292Z,4.00
2023-02-06T17:06:27.216Z,3.90
2023-02-06T17:08:57.398Z,3.90
2023-02-06T17:11:24.336Z,3.80
2023-02-06T17:13:51.035Z,3.70
2023-02-06T17:16:20.466Z,3.50
2023-02-06T17:18:47.725Z,3.50
2023-02-06T17:21:17.193Z,3.50
2023-02-06T17:23:44.332Z,3.50
2023-02-06T17:26:17.117Z,3.50
2023-02-06T17:28:44.747Z,3.40
2023-02-06T17:31:12.059Z,3.30
2023-02-06T17:33:39.011Z,3.40
2023-02-06T17:36:08.044Z,3.40
2023-02-06T17:38:34.843Z,3.40
2023-02-06T17:41:01.651Z,3.40
2023-02-06T17:43:29.653Z,3.50
2023-02-06T17:45:56.480Z,3.50
2023-02-06T17:48:23.222Z,3.50
2023-02-06T17:50:50.036Z,3.40
2023-02-06T17:53:17.882Z,3.40
2023-02-06T17:55:45.252Z,3.40
2023-02-06T17:58:12.096Z,3.40
2023-02-06T18:00:39.344Z,3.30
2023-02-06T18:03:06.382Z,3.20
2023-02-06T18:05:33.565Z,3.20
2023-02-06T18:08:00.370Z,3.20
2023-02-06T18:10:27.219Z,3.30
2023-02-06T18:12:54.157Z,3.20
2023-02-06T18:15:21.281Z,3.20
2023-02-06T18:17:48.196Z,3.30
2023-02-06T18:20:15.622Z,3.30
2023-02-06T18:22:42.447Z,3.20
2023-02-06T18:25:11.827Z,3.20
2023-02-06T18:27:40.374Z,3.20
2023-02-06T18:30:07.736Z,3.20
2023-02-06T18:32:37.592Z,3.20
2023-02-06T18:35:05.017Z,3.20
2023-02-06T18:37:31.800Z,3.30
2023-02-06T18:39:58.537Z,3.40
2023-02-06T18:42:44.102Z,3.40
2023-02-06T18:45:10.856Z,3.50
2023-02-06T18:47:39.109Z,3.60
2023-02-06T18:50:06.294Z,3.50
2023-02-06T18:52:33.093Z,3.50
2023-02-06T18:54:59.940Z,3.40
2023-02-06T18:57:26.652Z,3.20
2023-02-06T18:59:53.432Z,3.10
2023-02-06T19:02:20.301Z,2.90
2023-02-06T19:04:47.168Z,2.70
2023-02-06T19:07:15.408Z,2.70
2023-02-06T19:09:42.271Z,2.70
2023-02-06T19:12:09.042Z,2.90
2023-02-06T19:14:36.029Z,3.00
2023-02-06T19:17:03.095Z,3.20
2023-02-06T19:19:31.289Z,3.30
2023-02-06T19:21:58.086Z,3.40
2023-02-06T19:24:26.295Z,3.40
2023-02-06T19:26:53.216Z,3.40
2023-02-06T19:29:34.307Z,3.40
2023-02-06T19:32:02.261Z,3.40
2023-02-06T19:34:29.038Z,3.60
2023-02-06T19:36:55.802Z,3.70
2023-02-06T19:39:22.537Z,3.80
2023-02-06T19:41:49.293Z,3.90
2023-02-06T19:44:16.015Z,4.00
2023-02-06T19:46:42.878Z,4.00
2023-02-06T19:49:11.394Z,3.80
2023-02-06T19:51:40.823Z,3.50
2023-02-06T19:54:07.926Z,3.50
2023-02-06T19:56:39.293Z,3.80
2023-02-06T19:59:13.637Z,3.70
2023-02-06T20:01:40.378Z,3.80
2023-02-06T20:04:07.211Z,3.80
2023-02-06T20:06:35.256Z,3.80
2023-02-06T20:09:04.261Z,3.70
2023-02-06T20:11:32.782Z,3.70
2023-02-06T20:13:59.891Z,3.70
2023-02-06T20:16:29.508Z,3.70
2023-02-06T20:18:57.083Z,3.60
2023-02-06T20:21:32.949Z,3.70
2023-02-06T20:24:03.160Z,3.80
2023-02-06T20:26:34.800Z,3.90
2023-02-06T20:29:01.740Z,3.90
2023-02-06T20:31:29.299Z,3.90
2023-02-06T20:33:56.428Z,3.90
2023-02-06T20:36:26.351Z,3.70
2023-02-06T20:38:59.142Z,3.70
2023-02-06T20:41:31.779Z,3.70
2023-02-06T20:44:00.569Z,3.80
2023-02-06T20:46:29.760Z,3.80
2023-02-06T20:49:01.350Z,3.60
2023-02-06T20:51:29.024Z,3.70
2023-02-06T20:53:56.179Z,3.60
2023-02-06T20:56:23.839Z,3.50
2023-02-06T20:58:51.238Z,3.50
2023-02-06T21:01:26.251Z,3.50
2023-02-06T21:03:55.950Z,3.50
2023-02-06T21:06:22.934Z,3.40
2023-02-06T21:08:51.664Z,3.10
2023-02-06T21:11:18.629Z,3.00
2023-02-06T21:13:45.347Z,2.90
2023-02-06T21:16:13.649Z,3.00
2023-02-06T21:18:42.648Z,3.00
2023-02-06T21:21:12.611Z,3.00
2023-02-06T21:23:41.041Z,3.10
2023-02-06T21:26:09.715Z,2.90
2023-02-06T21:28:37.293Z,2.70
2023-02-06T21:31:07.118Z,2.70
2023-02-06T21:33:35.116Z,2.70
2023-02-06T21:36:03.127Z,2.70
2023-02-06T21:38:30.102Z,2.70
2023-02-06T21:41:02.854Z,2.60
2023-02-06T21:43:29.601Z,2.60
2023-02-06T21:45:57.929Z,2.50
2023-02-06T21:48:24.849Z,2.30
2023-02-06T21:50:51.587Z,2.20
2023-02-06T21:53:18.449Z,2.30
2023-02-06T21:55:45.940Z,2.20
2023-02-06T21:58:16.868Z,2.10
2023-02-06T22:00:45.971Z,2.10
2023-02-06T22:03:13.523Z,2.20
2023-02-06T22:05:40.507Z,2.10
2023-02-06T22:08:07.509Z,1.80
2023-02-06T22:10:37.940Z,1.70
2023-02-06T22:13:06.004Z,1.70
2023-02-06T22:15:33.789Z,1.60
2023-02-06T22:18:00.994Z,1.50
2023-02-06T22:20:28.177Z,1.70
2023-02-06T22:22:55.553Z,1.70
2023-02-06T22:25:22.476Z,1.80
2023-02-06T22:27:49.375Z,2.00
2023-02-06T22:30:16.262Z,2.00
2023-02-06T22:32:43.064Z,2.20
2023-02-06T22:35:09.931Z,2.30
2023-02-06T22:37:36.829Z,2.30
2023-02-06T22:40:04.371Z,2.20
2023-02-06T22:42:31.195Z,2.30
2023-02-06T22:44:58.011Z,2.20
2023-02-06T22:47:24.897Z,2.10
2023-02-06T22:49:52.701Z,2.10
2023-02-06T22:52:38.228Z,2.20
2023-02-06T22:55:05.939Z,2.20
2023-02-06T22:57:35.309Z,2.20
2023-02-06T23:00:02.166Z,2.30
2023-02-06T23:02:29.013Z,2.30
2023-02-06T23:04:55.814Z,2.10
2023-02-06T23:07:22.570Z,2.00
2023-02-06T23:09:49.352Z,2.00
2023-02-06T23:12:16.344Z,2.00
2023-02-06T23:14:43.549Z,1.80
2023-02-06T23:17:10.808Z,1.80
2023-02-06T23:19:39.508Z,1.80
2023-02-06T23:22:06.407Z,1.90
2023-02-06T23:24:33.186Z,1.90
2023-02-06T23:27:00.212Z,2.00
2023-02-06T23:29:27.032Z,2.00
2023-02-06T23:31:54.225Z,2.00
2023-02-06T23:34:24.120Z,2.00
2023-02-06T23:36:51.977Z,2.00
2023-02-06T23:39:19.287Z,2.00
2023-02-06T23:41:46.274Z,2.00
2023-02-06T23:44:13.070Z,1.90
2023-02-06T23:46:40.492Z,1.70
2023-02-06T23:49:08.154Z,1.60
2023-02-06T23:51:36.566Z,1.60
2023-02-06T23:54:04.035Z,1.50
2023-02-06T23:56:32.443Z,1.50
2023-02-06T23:59:01.140Z,1.30
